sensor_id;sensor_type;location;lat;lon;timestamp;pressure;altitude;pressure_sealevel;temperature;humidity
59274;BME280;45044;41.572;24.730;2022-08-11T00:00:11;91505.69;;;14.96;100.00
59274;BME280;45044;41.572;24.730;2022-08-11T00:02:41;91493.66;;;14.91;100.00
59274;BME280;45044;41.572;24.730;2022-08-11T00:05:15;91498.47;;;15.00;100.00
59274;BME280;45044;41.572;24.730;2022-08-11T00:07:44;91501.44;;;15.06;100.00
59274;BME280;45044;41.572;24.730;2022-08-11T00:10:13;91503.28;;;15.09;100.00
59274;BME280;45044;41.572;24.730;2022-08-11T00:12:42;91499.50;;;15.10;100.00
59274;BME280;45044;41.572;24.730;2022-08-11T00:15:10;91496.88;;;15.10;100.00
59274;BME280;45044;41.572;24.730;2022-08-11T00:17:38;91511.19;;;15.13;100.00
59274;BME280;45044;41.572;24.730;2022-08-11T00:20:11;91508.09;;;15.18;100.00
59274;BME280;45044;41.572;24.730;2022-08-11T00:22:44;91498.63;;;15.20;100.00
59274;BME280;45044;41.572;24.730;2022-08-11T00:25:19;91500.31;;;15.03;100.00
59274;BME280;45044;41.572;24.730;2022-08-11T00:27:47;91500.28;;;15.07;100.00
59274;BME280;45044;41.572;24.730;2022-08-11T00:30:15;91499.94;;;15.05;100.00
59274;BME280;45044;41.572;24.730;2022-08-11T00:32:51;91496.47;;;15.12;100.00
59274;BME280;45044;41.572;24.730;2022-08-11T00:35:24;91499.72;;;15.23;100.00
59274;BME280;45044;41.572;24.730;2022-08-11T00:38:12;91505.41;;;15.21;100.00
59274;BME280;45044;41.572;24.730;2022-08-11T00:40:55;91502.63;;;15.01;100.00
59274;BME280;45044;41.572;24.730;2022-08-11T00:51:46;91498.72;;;14.75;100.00
59274;BME280;45044;41.572;24.730;2022-08-11T01:24:46;91487.47;;;14.67;100.00
59274;BME280;45044;41.572;24.730;2022-08-11T01:35:39;91485.81;;;14.80;100.00
59274;BME280;45044;41.572;24.730;2022-08-11T01:47:46;91480.00;;;14.96;100.00
59274;BME280;45044;41.572;24.730;2022-08-11T01:50:25;91480.72;;;15.01;100.00
59274;BME280;45044;41.572;24.730;2022-08-11T01:53:17;91478.53;;;14.92;100.00
59274;BME280;45044;41.572;24.730;2022-08-11T01:56:16;91476.38;;;14.79;100.00
59274;BME280;45044;41.572;24.730;2022-08-11T01:59:08;91476.38;;;14.79;100.00
59274;BME280;45044;41.572;24.730;2022-08-11T02:07:12;91467.28;;;14.80;100.00
59274;BME280;45044;41.572;24.730;2022-08-11T02:13:05;91473.28;;;14.88;100.00
59274;BME280;45044;41.572;24.730;2022-08-11T02:20:23;91471.56;;;14.70;100.00
59274;BME280;45044;41.572;24.730;2022-08-11T02:23:21;91469.59;;;14.78;100.00
59274;BME280;45044;41.572;24.730;2022-08-11T02:29:23;91463.47;;;14.85;100.00
59274;BME280;45044;41.572;24.730;2022-08-11T02:32:18;91459.66;;;14.90;100.00
59274;BME280;45044;41.572;24.730;2022-08-11T02:35:18;91454.28;;;14.97;100.00
59274;BME280;45044;41.572;24.730;2022-08-11T02:46:15;91452.50;;;15.18;100.00
59274;BME280;45044;41.572;24.730;2022-08-11T02:49:27;91458.56;;;15.18;100.00
59274;BME280;45044;41.572;24.730;2022-08-11T02:52:55;91458.28;;;15.09;100.00
59274;BME280;45044;41.572;24.730;2022-08-11T03:01:44;91463.75;;;14.94;100.00
59274;BME280;45044;41.572;24.730;2022-08-11T03:04:21;91465.66;;;14.94;100.00
59274;BME280;45044;41.572;24.730;2022-08-11T03:07:17;91455.72;;;15.02;100.00
59274;BME280;45044;41.572;24.730;2022-08-11T03:13:18;91472.53;;;15.19;100.00
59274;BME280;45044;41.572;24.730;2022-08-11T03:22:22;91470.34;;;15.41;100.00
59274;BME280;45044;41.572;24.730;2022-08-11T03:25:02;91462.75;;;15.43;100.00
59274;BME280;45044;41.572;24.730;2022-08-11T03:28:00;91459.59;;;15.52;100.00
59274;BME280;45044;41.572;24.730;2022-08-11T03:33:28;91456.53;;;15.30;100.00
59274;BME280;45044;41.572;24.730;2022-08-11T03:42:49;91462.53;;;15.30;100.00
59274;BME280;45044;41.572;24.730;2022-08-11T04:20:07;91465.81;;;15.69;100.00
59274;BME280;45044;41.572;24.730;2022-08-11T04:28:53;91473.31;;;15.99;100.00
59274;BME280;45044;41.572;24.730;2022-08-11T04:37:35;91473.44;;;16.39;100.00
59274;BME280;45044;41.572;24.730;2022-08-11T05:00:28;91464.56;;;17.65;100.00
59274;BME280;45044;41.572;24.730;2022-08-11T05:06:16;91469.34;;;17.74;100.00
59274;BME280;45044;41.572;24.730;2022-08-11T05:12:39;91473.41;;;17.78;100.00
59274;BME280;45044;41.572;24.730;2022-08-11T05:14:53;91472.16;;;17.66;100.00
59274;BME280;45044;41.572;24.730;2022-08-11T05:17:45;91470.31;;;17.63;100.00
59274;BME280;45044;41.572;24.730;2022-08-11T05:20:51;91478.69;;;17.62;100.00
59274;BME280;45044;41.572;24.730;2022-08-11T05:23:45;91479.88;;;17.60;100.00
59274;BME280;45044;41.572;24.730;2022-08-11T05:26:45;91482.47;;;17.64;100.00
59274;BME280;45044;41.572;24.730;2022-08-11T05:30:07;91462.25;;;17.67;100.00
59274;BME280;45044;41.572;24.730;2022-08-11T05:33:11;91473.75;;;17.80;100.00
59274;BME280;45044;41.572;24.730;2022-08-11T05:38:54;91480.38;;;17.89;100.00
59274;BME280;45044;41.572;24.730;2022-08-11T05:41:41;91486.56;;;18.19;100.00
59274;BME280;45044;41.572;24.730;2022-08-11T05:44:27;91483.88;;;18.82;100.00
59274;BME280;45044;41.572;24.730;2022-08-11T05:47:24;91487.31;;;20.04;100.00
59274;BME280;45044;41.572;24.730;2022-08-11T05:50:13;91477.19;;;22.79;88.64
59274;BME280;45044;41.572;24.730;2022-08-11T05:53:03;91474.50;;;24.62;71.37
59274;BME280;45044;41.572;24.730;2022-08-11T05:55:55;91474.75;;;25.94;64.09
59274;BME280;45044;41.572;24.730;2022-08-11T05:58:43;91464.28;;;27.01;55.86
59274;BME280;45044;41.572;24.730;2022-08-11T06:01:26;91459.63;;;24.02;68.83
59274;BME280;45044;41.572;24.730;2022-08-11T06:03:56;91468.00;;;23.95;71.88
59274;BME280;45044;41.572;24.730;2022-08-11T06:07:05;91465.25;;;23.08;76.46
59274;BME280;45044;41.572;24.730;2022-08-11T06:09:53;91466.63;;;24.00;79.49
59274;BME280;45044;41.572;24.730;2022-08-11T06:14:51;91463.47;;;26.32;64.05
59274;BME280;45044;41.572;24.730;2022-08-11T06:17:27;91459.38;;;28.84;50.59
59274;BME280;45044;41.572;24.730;2022-08-11T06:20:06;91460.69;;;28.39;51.77
59274;BME280;45044;41.572;24.730;2022-08-11T06:22:45;91454.22;;;27.55;54.83
59274;BME280;45044;41.572;24.730;2022-08-11T06:25:18;91453.44;;;26.48;57.94
59274;BME280;45044;41.572;24.730;2022-08-11T06:27:53;91463.50;;;24.90;68.88
59274;BME280;45044;41.572;24.730;2022-08-11T06:30:39;91450.22;;;23.20;80.22
59274;BME280;45044;41.572;24.730;2022-08-11T06:33:29;91459.16;;;23.08;79.23
59274;BME280;45044;41.572;24.730;2022-08-11T06:36:09;91457.31;;;24.84;68.86
59274;BME280;45044;41.572;24.730;2022-08-11T06:41:30;91451.44;;;23.01;81.44
59274;BME280;45044;41.572;24.730;2022-08-11T06:46:47;91444.78;;;22.77;84.49
59274;BME280;45044;41.572;24.730;2022-08-11T06:49:21;91450.06;;;22.40;86.01
59274;BME280;45044;41.572;24.730;2022-08-11T06:52:09;91449.56;;;24.12;77.88
59274;BME280;45044;41.572;24.730;2022-08-11T06:55:04;91456.25;;;23.40;80.30
59274;BME280;45044;41.572;24.730;2022-08-11T06:57:36;91455.59;;;23.02;79.66
59274;BME280;45044;41.572;24.730;2022-08-11T07:00:24;91454.50;;;23.27;83.06
59274;BME280;45044;41.572;24.730;2022-08-11T07:03:01;91457.16;;;23.37;77.69
59274;BME280;45044;41.572;24.730;2022-08-11T07:14:29;91443.13;;;27.47;55.84
59274;BME280;45044;41.572;24.730;2022-08-11T07:17:25;91451.38;;;28.52;52.28
59274;BME280;45044;41.572;24.730;2022-08-11T07:19:57;91445.91;;;27.91;53.99
59274;BME280;45044;41.572;24.730;2022-08-11T07:22:48;91447.03;;;28.16;51.45
59274;BME280;45044;41.572;24.730;2022-08-11T07:25:38;91450.97;;;28.21;51.63
59274;BME280;45044;41.572;24.730;2022-08-11T07:28:29;91450.38;;;29.96;47.92
59274;BME280;45044;41.572;24.730;2022-08-11T07:34:20;91454.22;;;28.80;47.51
59274;BME280;45044;41.572;24.730;2022-08-11T07:36:57;91443.16;;;28.84;47.57
59274;BME280;45044;41.572;24.730;2022-08-11T07:39:26;91446.94;;;28.43;49.08
59274;BME280;45044;41.572;24.730;2022-08-11T07:41:56;91444.97;;;29.22;48.19
59274;BME280;45044;41.572;24.730;2022-08-11T07:44:27;91443.84;;;31.11;43.41
59274;BME280;45044;41.572;24.730;2022-08-11T07:47:02;91447.22;;;29.63;45.74
59274;BME280;45044;41.572;24.730;2022-08-11T07:49:49;91452.84;;;29.37;45.41
59274;BME280;45044;41.572;24.730;2022-08-11T07:52:38;91451.38;;;29.24;45.24
59274;BME280;45044;41.572;24.730;2022-08-11T07:55:12;91443.78;;;28.06;47.46
59274;BME280;45044;41.572;24.730;2022-08-11T07:57:43;91440.41;;;27.14;54.08
59274;BME280;45044;41.572;24.730;2022-08-11T08:00:53;91439.06;;;26.57;56.02
59274;BME280;45044;41.572;24.730;2022-08-11T08:03:48;91436.59;;;29.14;47.04
59274;BME280;45044;41.572;24.730;2022-08-11T08:06:35;91438.09;;;29.49;45.47
59274;BME280;45044;41.572;24.730;2022-08-11T08:09:23;91438.59;;;29.65;43.94
59274;BME280;45044;41.572;24.730;2022-08-11T08:12:10;91430.72;;;27.61;49.31
59274;BME280;45044;41.572;24.730;2022-08-11T08:14:56;91433.03;;;26.88;50.34
59274;BME280;45044;41.572;24.730;2022-08-11T08:17:43;91428.88;;;28.17;48.71
59274;BME280;45044;41.572;24.730;2022-08-11T08:20:47;91426.69;;;28.99;45.48
59274;BME280;45044;41.572;24.730;2022-08-11T08:23:21;91423.72;;;30.35;43.57
59274;BME280;45044;41.572;24.730;2022-08-11T08:26:05;91413.88;;;28.88;44.95
59274;BME280;45044;41.572;24.730;2022-08-11T08:28:56;91412.78;;;26.99;47.63
59274;BME280;45044;41.572;24.730;2022-08-11T08:31:44;91414.34;;;26.16;51.36
59274;BME280;45044;41.572;24.730;2022-08-11T08:34:13;91411.03;;;26.48;51.58
59274;BME280;45044;41.572;24.730;2022-08-11T08:36:44;91408.31;;;27.49;50.49
59274;BME280;45044;41.572;24.730;2022-08-11T08:39:21;91402.03;;;27.63;51.28
59274;BME280;45044;41.572;24.730;2022-08-11T08:41:51;91403.19;;;27.89;49.51
59274;BME280;45044;41.572;24.730;2022-08-11T08:44:20;91415.56;;;28.68;49.84
59274;BME280;45044;41.572;24.730;2022-08-11T08:47:11;91413.88;;;27.72;48.51
59274;BME280;45044;41.572;24.730;2022-08-11T08:49:44;91416.63;;;26.65;50.59
59274;BME280;45044;41.572;24.730;2022-08-11T08:52:18;91411.69;;;27.11;49.97
59274;BME280;45044;41.572;24.730;2022-08-11T08:55:07;91405.16;;;26.29;52.09
59274;BME280;45044;41.572;24.730;2022-08-11T08:57:39;91403.91;;;26.24;53.31
59274;BME280;45044;41.572;24.730;2022-08-11T09:00:08;91407.66;;;25.91;54.86
59274;BME280;45044;41.572;24.730;2022-08-11T09:02:42;91407.19;;;25.11;60.65
59274;BME280;45044;41.572;24.730;2022-08-11T09:05:16;91406.47;;;24.56;62.08
59274;BME280;45044;41.572;24.730;2022-08-11T09:07:44;91409.47;;;24.09;65.21
59274;BME280;45044;41.572;24.730;2022-08-11T09:10:17;91418.38;;;24.15;72.00
59274;BME280;45044;41.572;24.730;2022-08-11T09:12:45;91423.09;;;24.30;93.20
59274;BME280;45044;41.572;24.730;2022-08-11T09:15:14;91403.81;;;24.07;84.70
59274;BME280;45044;41.572;24.730;2022-08-11T09:17:48;91414.63;;;23.97;82.38
59274;BME280;45044;41.572;24.730;2022-08-11T09:20:24;91413.53;;;23.70;97.43
59274;BME280;45044;41.572;24.730;2022-08-11T09:22:58;91411.75;;;23.42;80.84
59274;BME280;45044;41.572;24.730;2022-08-11T09:26:06;91417.28;;;23.20;99.56
59274;BME280;45044;41.572;24.730;2022-08-11T09:28:58;91422.66;;;23.20;100.00
59274;BME280;45044;41.572;24.730;2022-08-11T09:31:26;91402.78;;;23.45;100.00
59274;BME280;45044;41.572;24.730;2022-08-11T09:33:59;91406.69;;;23.69;96.51
59274;BME280;45044;41.572;24.730;2022-08-11T09:36:27;91409.09;;;24.01;97.15
59274;BME280;45044;41.572;24.730;2022-08-11T09:39:13;91402.56;;;24.42;100.00
59274;BME280;45044;41.572;24.730;2022-08-11T09:42:01;91408.81;;;24.14;96.91
59274;BME280;45044;41.572;24.730;2022-08-11T09:44:37;91418.66;;;23.92;97.77
59274;BME280;45044;41.572;24.730;2022-08-11T09:49:48;91404.69;;;23.54;98.64
59274;BME280;45044;41.572;24.730;2022-08-11T09:52:18;91414.72;;;23.78;96.86
59274;BME280;45044;41.572;24.730;2022-08-11T09:54:50;91402.50;;;24.26;100.00
59274;BME280;45044;41.572;24.730;2022-08-11T09:57:20;91403.41;;;24.48;94.34
59274;BME280;45044;41.572;24.730;2022-08-11T10:00:09;91396.41;;;24.66;88.81
59274;BME280;45044;41.572;24.730;2022-08-11T10:02:47;91393.91;;;24.92;80.32
59274;BME280;45044;41.572;24.730;2022-08-11T10:05:18;91387.28;;;25.03;84.72
59274;BME280;45044;41.572;24.730;2022-08-11T10:08:06;91389.25;;;24.77;77.06
59274;BME280;45044;41.572;24.730;2022-08-11T10:10:36;91389.56;;;25.25;80.50
59274;BME280;45044;41.572;24.730;2022-08-11T10:13:17;91391.34;;;24.98;73.05
59274;BME280;45044;41.572;24.730;2022-08-11T10:16:07;91392.38;;;25.00;73.59
59274;BME280;45044;41.572;24.730;2022-08-11T10:18:43;91378.88;;;24.70;76.24
59274;BME280;45044;41.572;24.730;2022-08-11T10:24:05;91389.44;;;24.74;74.95
59274;BME280;45044;41.572;24.730;2022-08-11T10:26:53;91379.19;;;24.33;83.19
59274;BME280;45044;41.572;24.730;2022-08-11T10:32:13;91395.13;;;23.87;80.16
59274;BME280;45044;41.572;24.730;2022-08-11T10:35:23;91384.31;;;23.38;83.34
59274;BME280;45044;41.572;24.730;2022-08-11T10:37:52;91394.91;;;23.42;84.77
59274;BME280;45044;41.572;24.730;2022-08-11T10:40:39;91378.16;;;23.56;87.61
59274;BME280;45044;41.572;24.730;2022-08-11T10:43:13;91394.66;;;23.64;89.29
59274;BME280;45044;41.572;24.730;2022-08-11T10:46:00;91384.69;;;23.89;86.61
59274;BME280;45044;41.572;24.730;2022-08-11T10:48:57;91390.03;;;24.14;81.61
59274;BME280;45044;41.572;24.730;2022-08-11T10:51:26;91380.00;;;24.79;88.56
59274;BME280;45044;41.572;24.730;2022-08-11T10:54:18;91374.28;;;25.01;79.37
59274;BME280;45044;41.572;24.730;2022-08-11T10:57:05;91376.22;;;25.31;80.92
59274;BME280;45044;41.572;24.730;2022-08-11T10:59:54;91386.84;;;24.80;76.49
59274;BME280;45044;41.572;24.730;2022-08-11T11:02:22;91367.34;;;24.39;82.43
59274;BME280;45044;41.572;24.730;2022-08-11T11:08:11;91401.53;;;24.14;81.72
59274;BME280;45044;41.572;24.730;2022-08-11T11:10:58;91401.88;;;24.07;90.69
59274;BME280;45044;41.572;24.730;2022-08-11T11:13:29;91410.31;;;23.90;83.38
59274;BME280;45044;41.572;24.730;2022-08-11T11:16:22;91401.88;;;22.87;100.00
59274;BME280;45044;41.572;24.730;2022-08-11T11:19:09;91413.19;;;22.91;100.00
59274;BME280;45044;41.572;24.730;2022-08-11T11:21:38;91422.06;;;22.03;100.00
59274;BME280;45044;41.572;24.730;2022-08-11T11:24:15;91430.28;;;21.68;100.00
59274;BME280;45044;41.572;24.730;2022-08-11T11:26:59;91424.19;;;21.26;100.00
59274;BME280;45044;41.572;24.730;2022-08-11T11:29:45;91414.59;;;21.06;100.00
59274;BME280;45044;41.572;24.730;2022-08-11T11:32:38;91414.53;;;20.97;100.00
59274;BME280;45044;41.572;24.730;2022-08-11T11:37:59;91408.09;;;22.08;100.00
59274;BME280;45044;41.572;24.730;2022-08-11T11:40:33;91409.50;;;22.32;100.00
59274;BME280;45044;41.572;24.730;2022-08-11T11:43:00;91422.53;;;22.11;100.00
59274;BME280;45044;41.572;24.730;2022-08-11T11:45:27;91426.28;;;22.42;100.00
59274;BME280;45044;41.572;24.730;2022-08-11T11:47:56;91425.41;;;22.26;100.00
59274;BME280;45044;41.572;24.730;2022-08-11T11:50:34;91424.78;;;22.22;100.00
59274;BME280;45044;41.572;24.730;2022-08-11T11:53:07;91414.34;;;22.05;100.00
59274;BME280;45044;41.572;24.730;2022-08-11T11:55:37;91420.53;;;21.83;100.00
59274;BME280;45044;41.572;24.730;2022-08-11T11:58:05;91420.84;;;21.85;100.00
59274;BME280;45044;41.572;24.730;2022-08-11T12:00:52;91421.38;;;21.71;100.00
59274;BME280;45044;41.572;24.730;2022-08-11T12:03:38;91420.78;;;21.25;100.00
59274;BME280;45044;41.572;24.730;2022-08-11T12:06:07;91418.66;;;21.61;100.00
59274;BME280;45044;41.572;24.730;2022-08-11T12:08:35;91418.19;;;21.85;100.00
59274;BME280;45044;41.572;24.730;2022-08-11T12:11:08;91415.84;;;22.25;100.00
59274;BME280;45044;41.572;24.730;2022-08-11T12:13:58;91415.56;;;22.42;100.00
59274;BME280;45044;41.572;24.730;2022-08-11T12:16:30;91420.94;;;22.51;100.00
59274;BME280;45044;41.572;24.730;2022-08-11T12:19:11;91428.47;;;23.09;100.00
59274;BME280;45044;41.572;24.730;2022-08-11T12:21:39;91421.22;;;22.72;100.00
59274;BME280;45044;41.572;24.730;2022-08-11T12:24:27;91426.31;;;22.70;100.00
59274;BME280;45044;41.572;24.730;2022-08-11T12:27:14;91417.94;;;22.30;100.00
59274;BME280;45044;41.572;24.730;2022-08-11T12:30:00;91428.53;;;22.24;100.00
59274;BME280;45044;41.572;24.730;2022-08-11T12:32:34;91425.97;;;22.21;100.00
59274;BME280;45044;41.572;24.730;2022-08-11T12:35:03;91437.22;;;21.87;100.00
59274;BME280;45044;41.572;24.730;2022-08-11T12:37:53;91438.25;;;21.81;100.00
59274;BME280;45044;41.572;24.730;2022-08-11T12:40:32;91442.84;;;21.80;100.00
59274;BME280;45044;41.572;24.730;2022-08-11T12:43:44;91438.91;;;21.62;100.00
59274;BME280;45044;41.572;24.730;2022-08-11T12:46:37;91425.75;;;21.46;100.00
59274;BME280;45044;41.572;24.730;2022-08-11T12:49:27;91428.13;;;21.85;100.00
59274;BME280;45044;41.572;24.730;2022-08-11T12:52:21;91428.38;;;21.77;100.00
59274;BME280;45044;41.572;24.730;2022-08-11T12:55:25;91433.78;;;21.87;100.00
59274;BME280;45044;41.572;24.730;2022-08-11T12:58:33;91429.63;;;21.86;100.00
59274;BME280;45044;41.572;24.730;2022-08-11T13:01:00;91429.69;;;22.14;100.00
59274;BME280;45044;41.572;24.730;2022-08-11T13:03:46;91439.03;;;22.00;100.00
59274;BME280;45044;41.572;24.730;2022-08-11T13:06:32;91436.25;;;21.72;100.00
59274;BME280;45044;41.572;24.730;2022-08-11T13:08:59;91424.56;;;21.47;100.00
59274;BME280;45044;41.572;24.730;2022-08-11T13:11:27;91418.63;;;21.52;100.00
59274;BME280;45044;41.572;24.730;2022-08-11T13:14:23;91438.81;;;21.44;100.00
59274;BME280;45044;41.572;24.730;2022-08-11T13:16:50;91433.66;;;21.49;100.00
59274;BME280;45044;41.572;24.730;2022-08-11T13:19:44;91431.47;;;21.57;100.00
59274;BME280;45044;41.572;24.730;2022-08-11T13:22:17;91422.66;;;21.47;100.00
59274;BME280;45044;41.572;24.730;2022-08-11T13:24:44;91422.94;;;21.49;100.00
59274;BME280;45044;41.572;24.730;2022-08-11T13:27:11;91424.06;;;21.71;100.00
59274;BME280;45044;41.572;24.730;2022-08-11T13:29:41;91426.38;;;21.50;100.00
59274;BME280;45044;41.572;24.730;2022-08-11T13:32:08;91411.25;;;21.65;100.00
59274;BME280;45044;41.572;24.730;2022-08-11T13:34:37;91417.69;;;21.36;100.00
59274;BME280;45044;41.572;24.730;2022-08-11T13:37:13;91412.09;;;21.44;100.00
59274;BME280;45044;41.572;24.730;2022-08-11T13:39:42;91408.34;;;21.32;100.00
59274;BME280;45044;41.572;24.730;2022-08-11T13:42:15;91393.03;;;21.32;100.00
59274;BME280;45044;41.572;24.730;2022-08-11T13:44:48;91416.09;;;21.48;100.00
59274;BME280;45044;41.572;24.730;2022-08-11T13:47:16;91427.53;;;21.49;100.00
59274;BME280;45044;41.572;24.730;2022-08-11T13:49:43;91423.75;;;21.27;100.00
59274;BME280;45044;41.572;24.730;2022-08-11T13:52:14;91425.53;;;21.30;100.00
59274;BME280;45044;41.572;24.730;2022-08-11T13:54:42;91433.91;;;21.10;100.00
59274;BME280;45044;41.572;24.730;2022-08-11T13:57:13;91436.88;;;20.67;100.00
59274;BME280;45044;41.572;24.730;2022-08-11T14:00:04;91428.44;;;20.69;100.00
59274;BME280;45044;41.572;24.730;2022-08-11T14:02:53;91426.47;;;20.82;100.00
59274;BME280;45044;41.572;24.730;2022-08-11T14:05:25;91420.16;;;20.76;100.00
59274;BME280;45044;41.572;24.730;2022-08-11T14:08:03;91418.47;;;20.92;100.00
59274;BME280;45044;41.572;24.730;2022-08-11T14:10:57;91419.31;;;21.02;100.00
59274;BME280;45044;41.572;24.730;2022-08-11T14:14:06;91412.19;;;20.99;100.00
59274;BME280;45044;41.572;24.730;2022-08-11T14:16:40;91412.66;;;21.06;100.00
59274;BME280;45044;41.572;24.730;2022-08-11T14:19:12;91413.28;;;21.11;100.00
59274;BME280;45044;41.572;24.730;2022-08-11T14:21:42;91417.56;;;20.86;100.00
59274;BME280;45044;41.572;24.730;2022-08-11T14:24:38;91422.56;;;20.97;100.00
59274;BME280;45044;41.572;24.730;2022-08-11T14:27:08;91424.34;;;21.00;100.00
59274;BME280;45044;41.572;24.730;2022-08-11T14:29:56;91420.22;;;20.63;100.00
59274;BME280;45044;41.572;24.730;2022-08-11T14:32:24;91422.19;;;20.63;100.00
59274;BME280;45044;41.572;24.730;2022-08-11T14:34:53;91425.00;;;20.68;100.00
59274;BME280;45044;41.572;24.730;2022-08-11T14:37:22;91426.38;;;20.51;100.00
59274;BME280;45044;41.572;24.730;2022-08-11T14:39:53;91429.03;;;20.51;100.00
59274;BME280;45044;41.572;24.730;2022-08-11T14:42:29;91418.50;;;20.69;100.00
59274;BME280;45044;41.572;24.730;2022-08-11T14:45:15;91419.72;;;20.78;100.00
59274;BME280;45044;41.572;24.730;2022-08-11T14:48:22;91419.91;;;20.83;100.00
59274;BME280;45044;41.572;24.730;2022-08-11T14:50:49;91411.13;;;20.74;100.00
59274;BME280;45044;41.572;24.730;2022-08-11T14:53:16;91416.75;;;20.76;100.00
59274;BME280;45044;41.572;24.730;2022-08-11T14:55:45;91414.56;;;20.83;100.00
59274;BME280;45044;41.572;24.730;2022-08-11T14:58:31;91418.88;;;20.81;100.00
59274;BME280;45044;41.572;24.730;2022-08-11T15:01:03;91406.03;;;20.66;100.00
59274;BME280;45044;41.572;24.730;2022-08-11T15:03:52;91405.09;;;20.60;100.00
59274;BME280;45044;41.572;24.730;2022-08-11T15:06:40;91409.75;;;20.69;100.00
59274;BME280;45044;41.572;24.730;2022-08-11T15:09:08;91407.56;;;20.77;100.00
59274;BME280;45044;41.572;24.730;2022-08-11T15:11:35;91411.41;;;20.76;100.00
59274;BME280;45044;41.572;24.730;2022-08-11T15:14:22;91410.41;;;20.38;100.00
59274;BME280;45044;41.572;24.730;2022-08-11T15:17:08;91410.41;;;19.89;100.00
59274;BME280;45044;41.572;24.730;2022-08-11T15:19:39;91414.78;;;19.83;100.00
59274;BME280;45044;41.572;24.730;2022-08-11T15:22:30;91414.72;;;19.73;100.00
59274;BME280;45044;41.572;24.730;2022-08-11T15:25:18;91419.81;;;19.81;100.00
59274;BME280;45044;41.572;24.730;2022-08-11T15:27:49;91411.13;;;20.03;100.00
59274;BME280;45044;41.572;24.730;2022-08-11T15:30:37;91406.22;;;20.01;100.00
59274;BME280;45044;41.572;24.730;2022-08-11T15:33:25;91385.31;;;19.99;100.00
59274;BME280;45044;41.572;24.730;2022-08-11T15:36:13;91410.69;;;20.17;100.00
59274;BME280;45044;41.572;24.730;2022-08-11T15:39:30;91415.53;;;20.32;100.00
59274;BME280;45044;41.572;24.730;2022-08-11T15:41:59;91415.25;;;20.30;100.00
59274;BME280;45044;41.572;24.730;2022-08-11T15:44:53;91421.97;;;20.21;100.00
59274;BME280;45044;41.572;24.730;2022-08-11T15:47:51;91411.75;;;20.20;100.00
59274;BME280;45044;41.572;24.730;2022-08-11T15:50:33;91409.78;;;20.33;100.00
59274;BME280;45044;41.572;24.730;2022-08-11T15:53:42;91410.94;;;20.10;100.00
59274;BME280;45044;41.572;24.730;2022-08-11T15:56:24;91411.97;;;20.13;100.00
59274;BME280;45044;41.572;24.730;2022-08-11T15:58:56;91411.81;;;20.29;100.00
59274;BME280;45044;41.572;24.730;2022-08-11T16:02:03;91415.38;;;20.26;100.00
59274;BME280;45044;41.572;24.730;2022-08-11T16:05:02;91412.09;;;19.96;100.00
59274;BME280;45044;41.572;24.730;2022-08-11T16:07:32;91419.47;;;19.92;100.00
59274;BME280;45044;41.572;24.730;2022-08-11T16:10:11;91428.75;;;19.87;100.00
59274;BME280;45044;41.572;24.730;2022-08-11T16:12:48;91431.97;;;19.82;100.00
59274;BME280;45044;41.572;24.730;2022-08-11T16:15:39;91426.88;;;19.48;100.00
59274;BME280;45044;41.572;24.730;2022-08-11T16:18:30;91421.44;;;19.52;100.00
59274;BME280;45044;41.572;24.730;2022-08-11T16:21:12;91420.16;;;19.70;100.00
59274;BME280;45044;41.572;24.730;2022-08-11T16:24:00;91425.91;;;19.55;100.00
59274;BME280;45044;41.572;24.730;2022-08-11T16:26:29;91415.03;;;19.62;100.00
59274;BME280;45044;41.572;24.730;2022-08-11T16:29:18;91416.84;;;19.79;100.00
59274;BME280;45044;41.572;24.730;2022-08-11T16:31:50;91419.59;;;19.88;100.00
59274;BME280;45044;41.572;24.730;2022-08-11T16:34:38;91422.78;;;19.83;100.00
59274;BME280;45044;41.572;24.730;2022-08-11T16:37:26;91419.72;;;19.84;100.00
59274;BME280;45044;41.572;24.730;2022-08-11T16:40:13;91421.84;;;19.77;100.00
59274;BME280;45044;41.572;24.730;2022-08-11T16:42:44;91420.03;;;19.73;100.00
59274;BME280;45044;41.572;24.730;2022-08-11T16:45:38;91433.16;;;19.81;100.00
59274;BME280;45044;41.572;24.730;2022-08-11T16:48:29;91429.19;;;19.72;100.00
59274;BME280;45044;41.572;24.730;2022-08-11T16:51:03;91435.63;;;19.62;100.00
59274;BME280;45044;41.572;24.730;2022-08-11T16:53:30;91441.38;;;19.47;100.00
59274;BME280;45044;41.572;24.730;2022-08-11T16:56:40;91441.91;;;19.42;100.00
59274;BME280;45044;41.572;24.730;2022-08-11T16:59:16;91437.31;;;19.30;100.00
59274;BME280;45044;41.572;24.730;2022-08-11T17:01:52;91447.13;;;19.33;100.00
59274;BME280;45044;41.572;24.730;2022-08-11T17:07:12;91445.19;;;19.20;100.00
59274;BME280;45044;41.572;24.730;2022-08-11T17:10:33;91450.72;;;19.13;100.00
59274;BME280;45044;41.572;24.730;2022-08-11T17:13:30;91458.66;;;19.00;100.00
59274;BME280;45044;41.572;24.730;2022-08-11T17:16:01;91462.22;;;18.80;100.00
59274;BME280;45044;41.572;24.730;2022-08-11T17:19:00;91455.44;;;18.79;100.00
59274;BME280;45044;41.572;24.730;2022-08-11T17:21:30;91462.03;;;18.87;100.00
59274;BME280;45044;41.572;24.730;2022-08-11T17:24:05;91456.25;;;18.76;100.00
59274;BME280;45044;41.572;24.730;2022-08-11T17:26:40;91457.00;;;18.76;100.00
59274;BME280;45044;41.572;24.730;2022-08-11T17:29:32;91461.66;;;18.72;100.00
59274;BME280;45044;41.572;24.730;2022-08-11T17:32:23;91458.78;;;18.37;100.00
59274;BME280;45044;41.572;24.730;2022-08-11T17:35:38;91451.22;;;18.35;100.00